NORTHEAST SUFFOLK  -  Rip Current Statement Rip Current Statement        NORTHERN NASSAU  -  Rip Current Statement Rip Current Statement        NORTHERN QUEENS  -  Rip Current Statement Rip Current Statement     Air Quality Alert Air Quality Alert        NORTHWEST SUFFOLK  -  Rip Current Statement Rip Current Statement        SOUTHEAST SUFFOLK  -  Rip Current Statement Rip Current Statement        SOUTHERN NASSAU  -  Rip Current Statement Rip Current Statement        SOUTHERN QUEENS  -  Rip Current Statement Rip Current Statement     Air Quality Alert Air Quality Alert        SOUTHWEST SUFFOLK  -  Rip Current Statement Rip Current Statement      

Active alerts

Northern Queens
  Details for Northern Queens Rip Current Statement  +1 additional alert
Southern Queens
  Details for Southern Queens Rip Current Statement  +1 additional alert
Northern Nassau
  Details for Northern Nassau Rip Current Statement
Southern Nassau
  Details for Southern Nassau Rip Current Statement
Northwest Suffolk
  Details for Northwest Suffolk Rip Current Statement
Southwest Suffolk
  Details for Southwest Suffolk Rip Current Statement
Northeast Suffolk
  Details for Northeast Suffolk Rip Current Statement
Southeast Suffolk
  Details for Southeast Suffolk Rip Current Statement


WXM80 ListenWXM80 Stop

You find our weather info also at:

UK Metoffice

WeatherCloud

Weather Underground

Northeastern Weather Network

AWEKAS

Citizen Weather Observer Program (CWOP)

HAMweather, WeatherForYou, PWS Weather


Weather Underground History page Text

Daily Summary for October 28, 2016 Units:  English    Metric   Both
« Previous Day
Next Day »
Daily Weekly Monthly Yearly Custom
  High: Low: Average:
Temperature: 56.8 °F 44.4 °F 48.1 °F
Dew Point: 56.2 °F 36.5 °F 41.8 °F
Humidity: 98 % 64 % 80 %
Wind Speed: 12.0 mph 0.0 mph 5.4 mph
Wind Gust: 27.0 mph - -
Wind:- - WNW
Pressure: 30.17 in 29.94 in -
Precipitation: 0.00 in    
Historical Graphs
 
 
Tabular Data for October 28, 2016
Time Temperature Dew Point Pressure Wind Wind Speed Wind Gust Humidity Rainfall Rate (Hourly)
00:04 56.7 °F 56.1 °F 29.95 in Calm     98 % 0.01 in
00:09 56.7 °F 56.1 °F 29.95 in Calm     98 % 0.01 in
00:14 56.8 °F 56.2 °F 29.95 in Calm     98 % 0.01 in
00:19 56.8 °F 56.2 °F 29.95 in Calm     98 % 0.01 in
00:24 56.8 °F 56.2 °F 29.94 in Calm     98 % 0.00 in
00:29 56.7 °F 56.1 °F 29.95 in Calm     98 % 0.00 in
00:35 56.7 °F 56.1 °F 29.95 in North 3.0 mph 7.0 mph 98 % 0.00 in
00:40 56.5 °F 55.9 °F 29.95 in NNW 3.2 mph 8.1 mph 98 % 0.00 in
00:45 56.4 °F 55.8 °F 29.95 in WNW 1.3 mph 5.0 mph 98 % 0.00 in
00:50 56.0 °F 55.4 °F 29.95 in NE 2.6 mph 5.8 mph 98 % 0.00 in
00:55 55.8 °F 55.2 °F 29.96 in NW 3.0 mph 5.0 mph 98 % 0.00 in
01:00 55.4 °F 54.8 °F 29.96 in WNW 1.6 mph 5.8 mph 98 % 0.00 in
01:10 54.8 °F 54.2 °F 29.95 in North 0.3 mph 3.5 mph 98 % 0.00 in
01:15 54.5 °F 53.9 °F 29.95 in North 2.3 mph 8.1 mph 98 % 0.00 in
01:20 54.2 °F 53.6 °F 29.95 in North 1.0 mph 5.0 mph 98 % 0.00 in
01:25 53.9 °F 53.3 °F 29.95 in NNW 2.0 mph 3.5 mph 98 % 0.00 in
01:30 53.8 °F 53.2 °F 29.95 in NNW 1.0 mph 5.0 mph 98 % 0.00 in
01:35 53.5 °F 52.9 °F 29.95 in NNW 2.0 mph 5.0 mph 98 % 0.00 in
01:40 53.3 °F 52.8 °F 29.95 in North 2.5 mph 3.5 mph 98 % 0.00 in
01:45 53.1 °F 52.6 °F 29.95 in North 1.0 mph 6.0 mph 98 % 0.00 in
01:50 52.9 °F 52.4 °F 29.95 in NNW 1.0 mph 7.0 mph 98 % 0.00 in
02:20 52.0 °F 51.5 °F 29.96 in WNW 2.8 mph 9.2 mph 98 % 0.00 in
02:25 51.9 °F 51.4 °F 29.96 in WNW 5.1 mph 7.0 mph 98 % 0.00 in
02:30 51.9 °F 51.4 °F 29.96 in WNW 6.2 mph 9.2 mph 98 % 0.00 in
02:35 51.9 °F 51.4 °F 29.97 in WNW 5.0 mph 8.0 mph 98 % 0.00 in
02:40 51.9 °F 51.4 °F 29.96 in WNW 3.9 mph 8.1 mph 98 % 0.00 in
02:45 51.7 °F 51.2 °F 29.96 in West 3.1 mph 6.9 mph 98 % 0.00 in
02:50 51.5 °F 50.7 °F 29.96 in West 4.7 mph 8.1 mph 97 % 0.00 in
02:55 51.3 °F 50.5 °F 29.96 in WNW 1.9 mph 5.8 mph 97 % 0.00 in
03:00 51.1 °F 50.3 °F 29.96 in NW 2.0 mph 9.2 mph 97 % 0.00 in
03:06 50.9 °F 50.1 °F 29.96 in WNW 3.6 mph 8.1 mph 97 % 0.00 in
03:11 50.7 °F 49.9 °F 29.96 in WNW 3.9 mph 8.1 mph 97 % 0.00 in
03:16 50.5 °F 49.7 °F 29.96 in WNW 5.2 mph 9.2 mph 97 % 0.00 in
03:21 50.3 °F 49.5 °F 29.96 in WNW 2.5 mph 11.5 mph 97 % 0.00 in
03:26 50.1 °F 49.3 °F 29.96 in WNW 2.9 mph 6.9 mph 97 % 0.00 in
03:31 49.8 °F 49.0 °F 29.96 in West 5.1 mph 10.4 mph 97 % 0.00 in
03:36 49.6 °F 48.8 °F 29.96 in WNW 4.1 mph 8.1 mph 97 % 0.00 in
03:41 49.3 °F 48.5 °F 29.96 in West 3.1 mph 5.8 mph 97 % 0.00 in
03:46 49.0 °F 48.2 °F 29.96 in WSW 4.8 mph 11.5 mph 97 % 0.00 in
03:52 48.8 °F 48.0 °F 29.96 in WNW 1.7 mph 6.0 mph 97 % 0.00 in
03:57 48.7 °F 47.9 °F 29.96 in North 4.0 mph 8.1 mph 97 % 0.00 in
04:02 48.5 °F 47.7 °F 29.96 in WNW 6.4 mph 10.4 mph 97 % 0.00 in
04:07 48.4 °F 47.6 °F 29.96 in West 3.1 mph 11.5 mph 97 % 0.00 in
04:12 48.3 °F 47.5 °F 29.95 in NW 5.6 mph 11.5 mph 97 % 0.00 in
04:17 48.3 °F 47.5 °F 29.96 in WNW 6.4 mph 10.4 mph 97 % 0.00 in
04:22 48.3 °F 47.5 °F 29.95 in NNW 5.2 mph 9.2 mph 97 % 0.00 in
04:27 48.2 °F 47.4 °F 29.95 in NW 5.6 mph 12.7 mph 97 % 0.00 in
04:32 48.1 °F 47.3 °F 29.95 in NW 5.0 mph 6.9 mph 97 % 0.00 in
04:37 48.1 °F 47.3 °F 29.96 in SW 3.7 mph 11.0 mph 97 % 0.00 in
04:43 48.1 °F 47.3 °F 29.95 in NW 7.1 mph 11.5 mph 97 % 0.00 in
04:48 48.0 °F 46.9 °F 29.95 in WNW 4.3 mph 8.1 mph 96 % 0.00 in
04:53 48.0 °F 46.9 °F 29.96 in East 1.0 mph 3.5 mph 96 % 0.00 in
04:58 47.9 °F 46.8 °F 29.97 in West 4.7 mph 8.1 mph 96 % 0.00 in
05:03 47.8 °F 46.7 °F 29.96 in WSW 3.0 mph 7.0 mph 96 % 0.00 in
05:08 47.7 °F 46.6 °F 29.97 in WNW 4.5 mph 15.0 mph 96 % 0.00 in
05:13 47.6 °F 46.5 °F 29.96 in WSW 7.7 mph 11.0 mph 96 % 0.00 in
05:18 47.6 °F 46.5 °F 29.97 in WNW 2.6 mph 8.1 mph 96 % 0.00 in
05:23 47.4 °F 46.3 °F 29.97 in WSW 6.9 mph 11.5 mph 96 % 0.00 in
05:28 47.4 °F 46.3 °F 29.97 in West 3.8 mph 9.2 mph 96 % 0.00 in
05:34 47.3 °F 46.2 °F 29.97 in NW 5.0 mph 9.2 mph 96 % 0.00 in
05:39 47.2 °F 46.1 °F 29.97 in NW 6.3 mph 11.5 mph 96 % 0.00 in
05:44 47.1 °F 46.0 °F 29.97 in WNW 5.5 mph 9.2 mph 96 % 0.00 in
05:54 47.0 °F 45.9 °F 29.98 in WNW 8.4 mph 16.1 mph 96 % 0.00 in
05:59 46.9 °F 45.5 °F 29.98 in NW 6.8 mph 13.8 mph 95 % 0.00 in
06:04 46.8 °F 45.4 °F 29.99 in NW 7.2 mph 11.5 mph 95 % 0.00 in
06:09 46.8 °F 45.4 °F 29.99 in NNW 4.5 mph 11.0 mph 95 % 0.00 in
06:14 46.7 °F 45.3 °F 29.99 in NNW 7.8 mph 19.6 mph 95 % 0.00 in
06:19 46.6 °F 45.2 °F 29.99 in NNW 11.1 mph 13.8 mph 95 % 0.00 in
06:25 46.5 °F 44.9 °F 30.00 in SW 4.4 mph 11.5 mph 94 % 0.00 in
06:30 46.4 °F 44.8 °F 30.00 in NW 5.5 mph 10.4 mph 94 % 0.00 in
06:35 46.4 °F 44.8 °F 30.00 in West 2.9 mph 11.5 mph 94 % 0.00 in
06:40 46.4 °F 44.8 °F 30.00 in WSW 4.8 mph 9.2 mph 94 % 0.00 in
06:45 46.4 °F 44.8 °F 30.00 in West 3.5 mph 11.5 mph 94 % 0.00 in
06:50 46.4 °F 44.8 °F 30.00 in West 3.5 mph 9.2 mph 94 % 0.00 in
06:55 46.3 °F 44.7 °F 30.00 in NW 5.3 mph 11.5 mph 94 % 0.00 in
07:00 46.3 °F 44.7 °F 30.01 in WNW 4.3 mph 11.5 mph 94 % 0.00 in
07:05 46.2 °F 44.3 °F 30.01 in WNW 4.4 mph 11.5 mph 93 % 0.00 in
07:10 46.2 °F 44.3 °F 30.01 in West 5.0 mph 14.0 mph 93 % 0.00 in
07:15 46.1 °F 44.2 °F 30.02 in WNW 3.6 mph 12.7 mph 93 % 0.00 in
07:20 46.1 °F 44.2 °F 30.01 in WNW 5.0 mph 13.0 mph 93 % 0.00 in
07:25 46.1 °F 44.2 °F 30.01 in West 3.8 mph 10.0 mph 93 % 0.00 in
07:31 46.1 °F 44.2 °F 30.02 in NW 4.5 mph 16.1 mph 93 % 0.00 in
07:36 46.1 °F 44.2 °F 30.02 in WSW 4.0 mph 17.3 mph 93 % 0.00 in
07:41 46.1 °F 44.2 °F 30.03 in West 4.3 mph 9.2 mph 93 % 0.00 in
07:46 46.0 °F 43.8 °F 30.02 in WNW 4.6 mph 8.1 mph 92 % 0.00 in
07:51 46.0 °F 43.8 °F 30.02 in WNW 7.8 mph 12.7 mph 92 % 0.00 in
07:56 46.0 °F 43.8 °F 30.03 in West 3.3 mph 9.2 mph 92 % 0.00 in
08:01 46.0 °F 43.8 °F 30.03 in West 3.1 mph 5.8 mph 92 % 0.00 in
08:06 45.9 °F 43.7 °F 30.03 in NW 3.2 mph 4.6 mph 92 % 0.00 in
08:11 45.8 °F 43.3 °F 30.03 in NNW 3.6 mph 5.8 mph 91 % 0.00 in
08:16 45.9 °F 43.4 °F 30.04 in WNW 5.0 mph 8.1 mph 91 % 0.00 in
08:21 45.8 °F 43.0 °F 30.04 in WSW 6.4 mph 10.4 mph 90 % 0.00 in
08:26 45.9 °F 42.5 °F 30.04 in West 5.7 mph 10.4 mph 88 % 0.00 in
08:31 45.9 °F 42.2 °F 30.04 in West 6.0 mph 14.0 mph 87 % 0.00 in
08:36 45.9 °F 41.9 °F 30.04 in WNW 6.6 mph 11.5 mph 86 % 0.00 in
08:41 46.0 °F 42.0 °F 30.04 in West 5.5 mph 10.4 mph 86 % 0.00 in
08:52 46.1 °F 42.1 °F 30.05 in WNW 8.2 mph 18.4 mph 86 % 0.00 in
08:57 46.1 °F 41.8 °F 30.05 in WNW 5.0 mph 11.5 mph 85 % 0.00 in
09:02 46.2 °F 41.9 °F 30.05 in WNW 5.5 mph 13.8 mph 85 % 0.00 in
09:07 46.2 °F 41.6 °F 30.05 in NW 7.2 mph 12.7 mph 84 % 0.00 in
09:12 46.4 °F 41.8 °F 30.05 in WSW 8.4 mph 13.8 mph 84 % 0.00 in
09:17 46.4 °F 41.5 °F 30.05 in West 4.8 mph 12.7 mph 83 % 0.00 in
09:22 46.5 °F 41.3 °F 30.05 in WNW 3.6 mph 19.6 mph 82 % 0.00 in
09:27 46.6 °F 41.4 °F 30.05 in WNW 2.2 mph 9.0 mph 82 % 0.00 in
09:32 46.6 °F 40.8 °F 30.05 in West 8.5 mph 12.7 mph 80 % 0.00 in
09:37 46.9 °F 41.4 °F 30.05 in NW 8.9 mph 19.6 mph 81 % 0.00 in
09:43 47.2 °F 41.3 °F 30.06 in WNW 3.5 mph 11.5 mph 80 % 0.00 in
09:48 47.5 °F 41.6 °F 30.06 in North 7.1 mph 13.8 mph 80 % 0.00 in
09:53 47.7 °F 41.8 °F 30.06 in NW 5.2 mph 9.0 mph 80 % 0.00 in
09:58 48.0 °F 42.1 °F 30.06 in NNW 6.6 mph 11.5 mph 80 % 0.00 in
10:03 48.1 °F 41.6 °F 30.05 in WNW 8.0 mph 16.1 mph 78 % 0.00 in
10:08 48.1 °F 41.6 °F 30.05 in WNW 10.3 mph 19.6 mph 78 % 0.00 in
10:13 48.1 °F 40.9 °F 30.05 in NNW 6.7 mph 9.2 mph 76 % 0.00 in
10:18 48.1 °F 41.2 °F 30.05 in WNW 7.2 mph 11.5 mph 77 % 0.00 in
10:23 48.1 °F 41.2 °F 30.05 in North 7.6 mph 12.7 mph 77 % 0.00 in
10:28 48.0 °F 41.1 °F 30.05 in West 3.8 mph 6.0 mph 77 % 0.00 in
10:33 48.1 °F 40.9 °F 30.05 in WNW 9.2 mph 17.3 mph 76 % 0.00 in
10:39 48.3 °F 41.4 °F 30.04 in WNW 5.5 mph 15.0 mph 77 % 0.00 in
10:44 48.4 °F 41.2 °F 30.05 in NW 4.3 mph 6.9 mph 76 % 0.00 in
10:49 48.5 °F 40.6 °F 30.05 in WNW 6.9 mph 16.0 mph 74 % 0.00 in
10:54 48.5 °F 40.6 °F 30.05 in NW 4.9 mph 9.2 mph 74 % 0.00 in
10:59 48.4 °F 39.8 °F 30.05 in NW 9.1 mph 13.0 mph 72 % 0.00 in
11:05 48.2 °F 39.9 °F 30.05 in NW 9.0 mph 14.0 mph 73 % 0.00 in
11:10 48.2 °F 39.9 °F 30.05 in WNW 7.0 mph 13.0 mph 73 % 0.00 in
11:15 48.5 °F 39.5 °F 30.05 in WNW 6.0 mph 16.0 mph 71 % 0.00 in
11:20 48.7 °F 40.1 °F 30.05 in WNW 7.0 mph 16.0 mph 72 % 0.00 in
11:25 48.7 °F 39.4 °F 30.05 in WNW 8.0 mph 15.0 mph 70 % 0.00 in
11:30 48.7 °F 39.4 °F 30.05 in WNW 12.0 mph 16.0 mph 70 % 0.00 in
11:35 48.7 °F 39.4 °F 30.04 in WNW 3.0 mph 14.0 mph 70 % 0.00 in
11:40 48.6 °F 38.1 °F 30.04 in WNW 10.0 mph 20.0 mph 67 % 0.00 in
11:45 48.5 °F 38.4 °F 30.04 in WNW 7.0 mph 15.0 mph 68 % 0.00 in
11:50 48.9 °F 38.8 °F 30.04 in WNW 12.0 mph 18.0 mph 68 % 0.00 in
11:55 49.0 °F 37.7 °F 30.05 in WNW 12.0 mph 22.0 mph 65 % 0.00 in
12:05 48.7 °F 37.8 °F 30.04 in WNW 9.0 mph 22.0 mph 66 % 0.00 in
12:10 48.4 °F 37.6 °F 30.04 in WNW 12.0 mph 21.0 mph 66 % 0.00 in
12:15 48.2 °F 37.8 °F 30.04 in WNW 8.0 mph 19.0 mph 67 % 0.00 in
12:20 48.1 °F 37.3 °F 30.04 in WNW 7.0 mph 19.0 mph 66 % 0.00 in
12:25 47.9 °F 37.1 °F 30.04 in WNW 8.0 mph 19.0 mph 66 % 0.00 in
12:30 47.9 °F 37.5 °F 30.04 in WNW 12.0 mph 21.0 mph 67 % 0.00 in
12:35 47.9 °F 37.5 °F 30.05 in WNW 7.0 mph 15.0 mph 67 % 0.00 in
12:40 47.7 °F 37.7 °F 30.04 in West 9.0 mph 24.0 mph 68 % 0.00 in
12:45 47.7 °F 37.3 °F 30.04 in West 9.0 mph 19.0 mph 67 % 0.00 in
12:50 47.6 °F 36.8 °F 30.04 in WNW 9.0 mph 19.0 mph 66 % 0.00 in
12:55 47.4 °F 37.0 °F 30.04 in West 8.0 mph 18.0 mph 67 % 0.00 in
13:05 47.4 °F 37.0 °F 30.04 in West 8.0 mph 20.0 mph 67 % 0.00 in
13:10 47.4 °F 37.0 °F 30.04 in WNW 10.0 mph 22.0 mph 67 % 0.00 in
13:15 47.3 °F 36.5 °F 30.03 in WNW 7.0 mph 18.0 mph 66 % 0.00 in
13:20 47.4 °F 37.0 °F 30.03 in NW 5.0 mph 17.0 mph 67 % 0.00 in
13:25 47.4 °F 37.0 °F 30.03 in WNW 8.0 mph 17.0 mph 67 % 0.00 in
13:30 47.7 °F 37.3 °F 30.03 in WNW 12.0 mph 19.0 mph 67 % 0.00 in
13:35 47.9 °F 37.8 °F 30.03 in WNW 9.0 mph 23.0 mph 68 % 0.00 in
13:40 48.1 °F 37.7 °F 30.03 in WNW 8.0 mph 18.0 mph 67 % 0.00 in
13:45 48.4 °F 37.6 °F 30.03 in WNW 6.0 mph 25.0 mph 66 % 0.00 in
13:50 48.6 °F 38.1 °F 30.02 in WNW 7.0 mph 19.0 mph 67 % 0.00 in
13:55 48.7 °F 38.2 °F 30.03 in WNW 7.0 mph 18.0 mph 67 % 0.00 in
14:05 48.7 °F 37.8 °F 30.03 in NW 10.0 mph 22.0 mph 66 % 0.00 in
14:10 48.7 °F 38.2 °F 30.03 in WNW 7.0 mph 17.0 mph 67 % 0.00 in
14:15 48.8 °F 37.9 °F 30.03 in WNW 8.0 mph 19.0 mph 66 % 0.00 in
14:20 48.8 °F 37.9 °F 30.03 in WNW 3.0 mph 27.0 mph 66 % 0.00 in
14:25 48.8 °F 37.6 °F 30.03 in WNW 10.0 mph 22.0 mph 65 % 0.00 in
14:30 48.8 °F 37.9 °F 30.03 in WNW 6.0 mph 19.0 mph 66 % 0.00 in
14:35 48.9 °F 37.6 °F 30.03 in NW 7.0 mph 14.0 mph 65 % 0.00 in
14:40 48.8 °F 37.6 °F 30.03 in NW 6.0 mph 14.0 mph 65 % 0.00 in
14:45 48.8 °F 37.6 °F 30.03 in WNW 8.0 mph 19.0 mph 65 % 0.00 in
14:50 48.7 °F 37.1 °F 30.04 in WNW 8.0 mph 20.0 mph 64 % 0.00 in
14:55 48.7 °F 37.5 °F 30.04 in NW 5.0 mph 16.0 mph 65 % 0.00 in
15:05 48.7 °F 37.1 °F 30.03 in NW 9.0 mph 23.0 mph 64 % 0.00 in
15:10 48.6 °F 37.4 °F 30.04 in WNW 7.0 mph 20.0 mph 65 % 0.00 in
15:15 48.7 °F 37.8 °F 30.04 in WNW 3.0 mph 17.0 mph 66 % 0.00 in
15:20 48.8 °F 38.3 °F 30.04 in WNW 6.0 mph 14.0 mph 67 % 0.00 in
15:25 48.8 °F 37.9 °F 30.04 in WNW 6.0 mph 17.0 mph 66 % 0.00 in
15:30 48.7 °F 37.1 °F 30.04 in WNW 7.0 mph 16.0 mph 64 % 0.00 in
15:35 48.6 °F 37.7 °F 30.04 in WNW 5.0 mph 19.0 mph 66 % 0.00 in
15:40 48.5 °F 37.3 °F 30.05 in WNW 6.0 mph 17.0 mph 65 % 0.00 in
15:45 48.5 °F 37.7 °F 30.04 in WNW 9.0 mph 22.0 mph 66 % 0.00 in
15:50 48.6 °F 38.5 °F 30.04 in WNW 6.0 mph 12.0 mph 68 % 0.00 in
15:55 48.6 °F 37.4 °F 30.04 in WNW 8.0 mph 17.0 mph 65 % 0.00 in
16:05 48.6 °F 37.7 °F 30.04 in WNW 7.0 mph 20.0 mph 66 % 0.00 in
16:10 48.6 °F 38.1 °F 30.04 in WNW 3.0 mph 15.0 mph 67 % 0.00 in
16:15 48.5 °F 38.4 °F 30.04 in NW 3.0 mph 14.0 mph 68 % 0.00 in
16:20 48.5 °F 37.7 °F 30.05 in NW 6.0 mph 15.0 mph 66 % 0.00 in
16:25 48.5 °F 37.7 °F 30.05 in NW 6.0 mph 18.0 mph 66 % 0.00 in
16:30 48.5 °F 37.7 °F 30.05 in WNW 9.0 mph 17.0 mph 66 % 0.00 in
16:35 48.5 °F 37.7 °F 30.06 in NW 6.0 mph 15.0 mph 66 % 0.00 in
16:40 48.5 °F 37.3 °F 30.05 in NW 6.0 mph 20.0 mph 65 % 0.00 in
16:45 48.6 °F 37.4 °F 30.06 in WNW 9.0 mph 14.0 mph 65 % 0.00 in
16:50 48.6 °F 37.4 °F 30.06 in WNW 6.0 mph 17.0 mph 65 % 0.00 in
16:55 48.6 °F 37.4 °F 30.06 in NW 3.0 mph 17.0 mph 65 % 0.00 in
17:05 48.6 °F 37.4 °F 30.05 in NW 7.0 mph 18.0 mph 65 % 0.00 in
17:10 48.6 °F 37.4 °F 30.05 in WNW 8.0 mph 18.0 mph 65 % 0.00 in
17:15 48.6 °F 37.4 °F 30.05 in WNW 10.0 mph 20.0 mph 65 % 0.00 in
17:20 48.6 °F 37.4 °F 30.06 in WNW 8.0 mph 22.0 mph 65 % 0.00 in
17:25 48.6 °F 37.7 °F 30.07 in WNW 7.0 mph 15.0 mph 66 % 0.00 in
17:30 48.6 °F 38.1 °F 30.07 in WNW 6.0 mph 13.0 mph 67 % 0.00 in
17:35 48.6 °F 38.1 °F 30.07 in WNW 10.0 mph 15.0 mph 67 % 0.00 in
17:40 48.5 °F 38.0 °F 30.07 in WNW 2.0 mph 13.0 mph 67 % 0.00 in
17:45 48.4 °F 37.9 °F 30.08 in WNW 3.0 mph 11.0 mph 67 % 0.00 in
17:50 48.3 °F 37.8 °F 30.07 in NW 7.0 mph 15.0 mph 67 % 0.00 in
17:55 48.2 °F 37.8 °F 30.08 in WNW 6.0 mph 18.0 mph 67 % 0.00 in
18:05 48.0 °F 37.6 °F 30.09 in NW 5.0 mph 17.0 mph 67 % 0.00 in
18:10 47.9 °F 37.5 °F 30.09 in WNW 5.0 mph 13.0 mph 67 % 0.00 in
18:15 47.8 °F 37.4 °F 30.09 in WNW 6.0 mph 12.0 mph 67 % 0.00 in
18:20 47.7 °F 37.7 °F 30.09 in NW 3.0 mph 12.0 mph 68 % 0.00 in
18:25 47.6 °F 37.6 °F 30.09 in WNW 3.0 mph 12.0 mph 68 % 0.00 in
18:30 47.5 °F 37.8 °F 30.09 in WNW 3.0 mph 9.0 mph 69 % 0.00 in
18:35 47.4 °F 37.4 °F 30.10 in WNW 6.0 mph 14.0 mph 68 % 0.00 in
18:40 47.4 °F 37.4 °F 30.10 in WNW 6.0 mph 12.0 mph 68 % 0.00 in
18:45 47.3 °F 37.6 °F 30.10 in WNW 6.0 mph 13.0 mph 69 % 0.00 in
18:50 47.3 °F 37.6 °F 30.10 in WNW 3.0 mph 15.0 mph 69 % 0.00 in
18:55 47.3 °F 37.6 °F 30.11 in WNW 12.0 mph 20.0 mph 69 % 0.00 in
19:05 47.3 °F 37.6 °F 30.11 in WNW 6.0 mph 14.0 mph 69 % 0.00 in
19:10 47.3 °F 38.0 °F 30.11 in WNW 2.0 mph 15.0 mph 70 % 0.00 in
19:15 47.2 °F 37.5 °F 30.12 in WNW 6.0 mph 17.0 mph 69 % 0.00 in
19:20 47.2 °F 37.9 °F 30.12 in WNW 9.0 mph 17.0 mph 70 % 0.00 in
19:25 47.1 °F 37.4 °F 30.12 in WNW 7.0 mph 17.0 mph 69 % 0.00 in
19:30 47.1 °F 37.8 °F 30.13 in WNW 7.0 mph 18.0 mph 70 % 0.00 in
19:35 47.0 °F 37.7 °F 30.13 in WNW 3.0 mph 15.0 mph 70 % 0.00 in
19:44 46.9 °F 37.6 °F 30.13 in WNW 12.0 mph 12.0 mph 70 % 0.00 in
19:45 46.9 °F 37.6 °F 30.13 in NW 11.6 mph 11.6 mph 70 % 0.00 in
19:46 46.9 °F 37.6 °F 30.13 in West 4.8 mph 11.5 mph 70 % 0.00 in
19:51 46.8 °F 37.5 °F 30.13 in WNW 4.0 mph 8.1 mph 70 % 0.00 in
19:56 46.7 °F 37.8 °F 30.14 in West 4.9 mph 7.0 mph 71 % 0.00 in
20:01 46.6 °F 37.7 °F 30.14 in WSW 5.8 mph 12.7 mph 71 % 0.00 in
20:06 46.6 °F 37.7 °F 30.14 in West 6.3 mph 12.0 mph 71 % 0.00 in
20:11 46.5 °F 37.6 °F 30.13 in WSW 6.7 mph 9.2 mph 71 % 0.00 in
20:16 46.5 °F 37.6 °F 30.14 in WNW 2.0 mph 4.6 mph 71 % 0.00 in
20:21 46.4 °F 37.5 °F 30.14 in WNW 4.1 mph 9.2 mph 71 % 0.00 in
20:26 46.3 °F 37.4 °F 30.14 in SW 4.6 mph 11.5 mph 71 % 0.00 in
20:32 46.2 °F 37.7 °F 30.14 in WNW 4.1 mph 11.5 mph 72 % 0.00 in
20:37 46.1 °F 37.6 °F 30.15 in West 3.5 mph 11.5 mph 72 % 0.00 in
20:42 46.0 °F 37.5 °F 30.15 in West 2.4 mph 4.6 mph 72 % 0.00 in
20:47 45.9 °F 37.4 °F 30.16 in NW 2.6 mph 7.0 mph 72 % 0.00 in
20:52 45.9 °F 37.4 °F 30.16 in WNW 6.6 mph 10.0 mph 72 % 0.00 in
20:57 45.8 °F 37.3 °F 30.16 in NW 5.8 mph 7.0 mph 72 % 0.00 in
21:02 45.8 °F 37.6 °F 30.16 in WNW 1.6 mph 5.8 mph 73 % 0.00 in
21:07 45.8 °F 37.6 °F 30.16 in WNW 7.0 mph 10.4 mph 73 % 0.00 in
21:12 45.8 °F 37.6 °F 30.17 in WNW 3.5 mph 5.0 mph 73 % 0.00 in
21:17 45.7 °F 37.5 °F 30.16 in WNW 0.9 mph 12.7 mph 73 % 0.00 in
21:23 45.6 °F 37.4 °F 30.17 in NNW 2.8 mph 6.9 mph 73 % 0.00 in
21:28 45.6 °F 37.4 °F 30.17 in North 3.7 mph 8.1 mph 73 % 0.00 in
21:33 45.5 °F 37.3 °F 30.17 in WNW 4.9 mph 6.9 mph 73 % 0.00 in
21:38 45.5 °F 37.0 °F 30.17 in West 2.1 mph 9.0 mph 72 % 0.00 in
21:43 45.5 °F 37.3 °F 30.17 in NW 3.9 mph 8.1 mph 73 % 0.00 in
21:48 45.4 °F 37.2 °F 30.17 in North 6.1 mph 11.5 mph 73 % 0.00 in
21:53 45.4 °F 37.2 °F 30.17 in WNW 7.1 mph 11.5 mph 73 % 0.00 in
21:58 45.4 °F 37.2 °F 30.17 in WNW 5.6 mph 8.1 mph 73 % 0.00 in
22:03 45.4 °F 36.9 °F 30.17 in NNW 0.9 mph 8.1 mph 72 % 0.00 in
22:08 45.3 °F 37.2 °F 30.17 in NW 5.8 mph 12.0 mph 73 % 0.00 in
22:14 45.3 °F 37.5 °F 30.17 in NW 3.9 mph 9.2 mph 74 % 0.00 in
22:19 45.2 °F 37.1 °F 30.17 in NW 4.2 mph 6.9 mph 73 % 0.00 in
22:24 45.2 °F 37.4 °F 30.17 in NNE 2.0 mph 6.9 mph 74 % 0.00 in
22:29 45.1 °F 37.3 °F 30.17 in West 2.2 mph 10.4 mph 74 % 0.00 in
22:34 45.0 °F 37.2 °F 30.17 in WNW 4.6 mph 6.0 mph 74 % 0.00 in
22:39 44.9 °F 37.1 °F 30.17 in WSW 1.7 mph 4.6 mph 74 % 0.00 in
22:44 44.9 °F 37.1 °F 30.17 in WNW 2.6 mph 11.5 mph 74 % 0.00 in
22:49 44.8 °F 37.4 °F 30.17 in North 4.5 mph 4.6 mph 75 % 0.00 in
22:54 44.8 °F 37.4 °F 30.17 in ENE 3.8 mph 12.7 mph 75 % 0.00 in
22:59 44.7 °F 36.9 °F 30.17 in NNW 4.3 mph 11.5 mph 74 % 0.00 in
23:05 44.7 °F 36.6 °F 30.16 in NE 3.9 mph 5.8 mph 73 % 0.00 in
23:10 44.7 °F 37.3 °F 30.16 in NW 1.1 mph 6.9 mph 75 % 0.00 in
23:15 44.7 °F 36.9 °F 30.15 in North 5.2 mph 8.1 mph 74 % 0.00 in
23:20 44.6 °F 37.2 °F 30.15 in NNE 7.3 mph 13.8 mph 75 % 0.00 in
23:25 44.6 °F 37.2 °F 30.15 in North 3.7 mph 12.7 mph 75 % 0.00 in
23:30 44.6 °F 37.5 °F 30.15 in NNE 3.3 mph 10.4 mph 76 % 0.00 in
23:35 44.5 °F 37.1 °F 30.16 in WNW 2.9 mph 8.1 mph 75 % 0.00 in
23:40 44.5 °F 37.4 °F 30.16 in NW 3.3 mph 10.4 mph 76 % 0.00 in
23:45 44.5 °F 37.4 °F 30.15 in NNE 3.6 mph 5.8 mph 76 % 0.00 in
23:50 44.4 °F 37.7 °F 30.16 in NNW 5.0 mph 10.0 mph 77 % 0.00 in
23:55 44.4 °F 37.3 °F 30.16 in NNW 6.0 mph 10.0 mph 76 % 0.00 in
Crab Meadow Weather
Compliments of Weather Underground - 2.75 mb

Script developed by  Jim McMurry - jmcmurry@mwt.net Adapted for the template by  Wim van der Kuil - Leuven-Template.eu

Hurricanes: Hurricanes are classified into five categories, based on their wind speeds and potential to cause damage. * Category One -- Winds 74-95 miles per hour * Category Two -- Winds 96-110 miles per hour * Category Three -- Winds 111-130 miles per hour * Category Four -- Winds 131-155 miles per hour * Category Five -- Winds greater than 155 miles per hour.